sensor_id;sensor_type;location;lat;lon;timestamp;pressure;altitude;pressure_sealevel;temperature;humidity
8160;BME280;27404;52.398;9.646;2023-05-10T00:00:57;100018.97;;;12.32;100.00
8160;BME280;27404;52.398;9.646;2023-05-10T00:03:23;100016.22;;;12.32;100.00
8160;BME280;27404;52.398;9.646;2023-05-10T00:05:48;100019.50;;;12.29;100.00
8160;BME280;27404;52.398;9.646;2023-05-10T00:08:14;100014.00;;;12.29;100.00
8160;BME280;27404;52.398;9.646;2023-05-10T00:10:39;100013.22;;;12.28;100.00
8160;BME280;27404;52.398;9.646;2023-05-10T00:13:06;100012.13;;;12.29;100.00
8160;BME280;27404;52.398;9.646;2023-05-10T00:15:31;100007.16;;;12.26;100.00
8160;BME280;27404;52.398;9.646;2023-05-10T00:17:57;100002.25;;;12.28;100.00
8160;BME280;27404;52.398;9.646;2023-05-10T00:20:22;100008.91;;;12.38;100.00
8160;BME280;27404;52.398;9.646;2023-05-10T00:22:48;100001.44;;;12.33;100.00
8160;BME280;27404;52.398;9.646;2023-05-10T00:25:13;100002.81;;;12.31;100.00
8160;BME280;27404;52.398;9.646;2023-05-10T00:27:39;99998.66;;;12.28;100.00
8160;BME280;27404;52.398;9.646;2023-05-10T00:30:05;100000.25;;;12.19;100.00
8160;BME280;27404;52.398;9.646;2023-05-10T00:32:33;100000.78;;;12.16;100.00
8160;BME280;27404;52.398;9.646;2023-05-10T00:34:58;100001.88;;;12.14;100.00
8160;BME280;27404;52.398;9.646;2023-05-10T00:37:24;99997.22;;;12.15;100.00
8160;BME280;27404;52.398;9.646;2023-05-10T00:39:49;99996.41;;;12.14;100.00
8160;BME280;27404;52.398;9.646;2023-05-10T00:42:15;99987.09;;;12.16;100.00
8160;BME280;27404;52.398;9.646;2023-05-10T00:44:40;99988.97;;;12.15;100.00
8160;BME280;27404;52.398;9.646;2023-05-10T00:47:06;99987.09;;;12.16;100.00
8160;BME280;27404;52.398;9.646;2023-05-10T00:49:32;99984.06;;;12.17;100.00
8160;BME280;27404;52.398;9.646;2023-05-10T00:51:58;99992.00;;;12.13;100.00
8160;BME280;27404;52.398;9.646;2023-05-10T00:54:23;99989.50;;;12.12;100.00
8160;BME280;27404;52.398;9.646;2023-05-10T00:56:49;99981.81;;;12.09;100.00
8160;BME280;27404;52.398;9.646;2023-05-10T00:59:18;99981.84;;;12.14;100.00
8160;BME280;27404;52.398;9.646;2023-05-10T01:01:47;99979.91;;;12.09;100.00
8160;BME280;27404;52.398;9.646;2023-05-10T01:04:13;99975.00;;;12.11;100.00
8160;BME280;27404;52.398;9.646;2023-05-10T01:06:42;99973.03;;;12.07;100.00
8160;BME280;27404;52.398;9.646;2023-05-10T01:09:09;99966.69;;;12.01;100.00
8160;BME280;27404;52.398;9.646;2023-05-10T01:11:35;99967.19;;;11.98;100.00
8160;BME280;27404;52.398;9.646;2023-05-10T01:14:02;99963.88;;;11.96;100.00
8160;BME280;27404;52.398;9.646;2023-05-10T01:16:29;99969.69;;;11.99;100.00
8160;BME280;27404;52.398;9.646;2023-05-10T01:18:57;99965.25;;;11.98;100.00
8160;BME280;27404;52.398;9.646;2023-05-10T01:24:35;99967.25;;;12.03;100.00
8160;BME280;27404;52.398;9.646;2023-05-10T01:38:35;99967.28;;;11.76;100.00
8160;BME280;27404;52.398;9.646;2023-05-10T01:42:03;99968.59;;;11.73;100.00
8160;BME280;27404;52.398;9.646;2023-05-10T01:44:16;99960.97;;;11.75;100.00
8160;BME280;27404;52.398;9.646;2023-05-10T01:46:48;99958.03;;;11.82;100.00
8160;BME280;27404;52.398;9.646;2023-05-10T01:49:29;99962.00;;;11.69;100.00
8160;BME280;27404;52.398;9.646;2023-05-10T01:52:00;99964.78;;;11.74;100.00
8160;BME280;27404;52.398;9.646;2023-05-10T01:54:29;99954.88;;;11.68;100.00
8160;BME280;27404;52.398;9.646;2023-05-10T01:57:00;99958.13;;;11.65;100.00
8160;BME280;27404;52.398;9.646;2023-05-10T01:59:31;99963.56;;;11.60;100.00
8160;BME280;27404;52.398;9.646;2023-05-10T02:02:02;99963.72;;;11.48;100.00
8160;BME280;27404;52.398;9.646;2023-05-10T02:04:30;99968.06;;;11.44;100.00
8160;BME280;27404;52.398;9.646;2023-05-10T02:06:56;99964.50;;;11.43;100.00
8160;BME280;27404;52.398;9.646;2023-05-10T02:09:23;99969.81;;;11.55;100.00
8160;BME280;27404;52.398;9.646;2023-05-10T02:11:50;99958.41;;;11.63;100.00
8160;BME280;27404;52.398;9.646;2023-05-10T02:14:18;99967.94;;;11.61;100.00
8160;BME280;27404;52.398;9.646;2023-05-10T02:16:44;99963.72;;;11.48;100.00
8160;BME280;27404;52.398;9.646;2023-05-10T02:19:11;99969.47;;;11.46;100.00
8160;BME280;27404;52.398;9.646;2023-05-10T02:21:39;99963.09;;;11.40;100.00
8160;BME280;27404;52.398;9.646;2023-05-10T02:24:06;99966.47;;;11.48;100.00
8160;BME280;27404;52.398;9.646;2023-05-10T02:26:34;99968.44;;;11.52;100.00
8160;BME280;27404;52.398;9.646;2023-05-10T02:29:02;99966.69;;;11.41;100.00
8160;BME280;27404;52.398;9.646;2023-05-10T02:31:30;99966.22;;;11.49;100.00
8160;BME280;27404;52.398;9.646;2023-05-10T02:33:56;99962.81;;;11.37;100.00
8160;BME280;27404;52.398;9.646;2023-05-10T02:36:30;99965.31;;;11.44;100.00
8160;BME280;27404;52.398;9.646;2023-05-10T02:38:57;99965.66;;;11.47;100.00
8160;BME280;27404;52.398;9.646;2023-05-10T02:41:24;99969.53;;;11.51;100.00
8160;BME280;27404;52.398;9.646;2023-05-10T02:43:52;99964.84;;;11.52;100.00
8160;BME280;27404;52.398;9.646;2023-05-10T02:46:21;99962.41;;;11.50;100.00
8160;BME280;27404;52.398;9.646;2023-05-10T02:48:46;99960.47;;;11.51;100.00
8160;BME280;27404;52.398;9.646;2023-05-10T02:51:14;99953.91;;;11.52;100.00
8160;BME280;27404;52.398;9.646;2023-05-10T02:53:43;99956.75;;;11.62;100.00
8160;BME280;27404;52.398;9.646;2023-05-10T02:56:13;99954.75;;;11.52;100.00
8160;BME280;27404;52.398;9.646;2023-05-10T02:58:40;99952.00;;;11.52;100.00
8160;BME280;27404;52.398;9.646;2023-05-10T03:01:06;99943.47;;;11.49;100.00
8160;BME280;27404;52.398;9.646;2023-05-10T03:03:33;99947.88;;;11.50;100.00
8160;BME280;27404;52.398;9.646;2023-05-10T03:05:58;99944.31;;;11.49;100.00
8160;BME280;27404;52.398;9.646;2023-05-10T03:08:24;99945.69;;;11.52;100.00
8160;BME280;27404;52.398;9.646;2023-05-10T03:11:02;99945.69;;;11.52;100.00
8160;BME280;27404;52.398;9.646;2023-05-10T03:13:48;99936.41;;;11.53;100.00
8160;BME280;27404;52.398;9.646;2023-05-10T03:16:24;99944.97;;;11.62;100.00
8160;BME280;27404;52.398;9.646;2023-05-10T03:18:58;99946.09;;;11.66;100.00
8160;BME280;27404;52.398;9.646;2023-05-10T03:21:28;99939.81;;;11.65;100.00
8160;BME280;27404;52.398;9.646;2023-05-10T03:24:08;99942.88;;;11.74;100.00
8160;BME280;27404;52.398;9.646;2023-05-10T03:26:34;99946.41;;;11.69;100.00
8160;BME280;27404;52.398;9.646;2023-05-10T03:29:01;99942.31;;;11.72;100.00
8160;BME280;27404;52.398;9.646;2023-05-10T03:31:28;99943.50;;;11.81;100.00
8160;BME280;27404;52.398;9.646;2023-05-10T03:33:53;99941.59;;;11.82;100.00
8160;BME280;27404;52.398;9.646;2023-05-10T03:36:19;99938.06;;;11.87;100.00
8160;BME280;27404;52.398;9.646;2023-05-10T03:38:45;99944.91;;;11.84;100.00
8160;BME280;27404;52.398;9.646;2023-05-10T03:41:10;99946.00;;;11.83;100.00
8160;BME280;27404;52.398;9.646;2023-05-10T03:43:36;99949.00;;;11.87;100.00
8160;BME280;27404;52.398;9.646;2023-05-10T03:46:05;99946.00;;;11.83;100.00
8160;BME280;27404;52.398;9.646;2023-05-10T03:48:32;99952.56;;;11.82;100.00
8160;BME280;27404;52.398;9.646;2023-05-10T03:50:57;99941.88;;;11.85;100.00
8160;BME280;27404;52.398;9.646;2023-05-10T03:53:23;99940.28;;;11.90;100.00
8160;BME280;27404;52.398;9.646;2023-05-10T03:55:48;99943.59;;;11.92;100.00
8160;BME280;27404;52.398;9.646;2023-05-10T03:58:14;99935.88;;;11.89;100.00
8160;BME280;27404;52.398;9.646;2023-05-10T04:00:40;99943.84;;;11.90;100.00
8160;BME280;27404;52.398;9.646;2023-05-10T04:03:09;99945.53;;;11.96;100.00
8160;BME280;27404;52.398;9.646;2023-05-10T04:05:35;99945.38;;;12.08;100.00
8160;BME280;27404;52.398;9.646;2023-05-10T04:08:01;99944.53;;;12.08;100.00
8160;BME280;27404;52.398;9.646;2023-05-10T04:10:26;99939.63;;;12.10;100.00
8160;BME280;27404;52.398;9.646;2023-05-10T04:12:52;99944.91;;;12.17;100.00
8160;BME280;27404;52.398;9.646;2023-05-10T04:15:17;99950.91;;;12.13;100.00
8160;BME280;27404;52.398;9.646;2023-05-10T04:17:43;99948.13;;;12.08;100.00
8160;BME280;27404;52.398;9.646;2023-05-10T04:20:09;99954.16;;;12.10;100.00
8160;BME280;27404;52.398;9.646;2023-05-10T04:22:34;99950.91;;;12.13;100.00
8160;BME280;27404;52.398;9.646;2023-05-10T04:25:00;99947.31;;;12.13;100.00
8160;BME280;27404;52.398;9.646;2023-05-10T04:27:25;99943.25;;;12.16;100.00
8160;BME280;27404;52.398;9.646;2023-05-10T04:29:50;99942.16;;;12.17;100.00
8160;BME280;27404;52.398;9.646;2023-05-10T04:32:16;99939.09;;;12.13;100.00
8160;BME280;27404;52.398;9.646;2023-05-10T04:34:43;99947.59;;;12.11;100.00
8160;BME280;27404;52.398;9.646;2023-05-10T04:37:08;99950.53;;;12.05;100.00
8160;BME280;27404;52.398;9.646;2023-05-10T04:39:34;99951.63;;;12.04;100.00
8160;BME280;27404;52.398;9.646;2023-05-10T04:42:01;99959.28;;;12.02;100.00
8160;BME280;27404;52.398;9.646;2023-05-10T04:44:28;99957.97;;;12.04;100.00
8160;BME280;27404;52.398;9.646;2023-05-10T04:46:54;99960.06;;;11.97;100.00
8160;BME280;27404;52.398;9.646;2023-05-10T04:49:19;99962.75;;;11.92;100.00
8160;BME280;27404;52.398;9.646;2023-05-10T04:51:45;99969.59;;;11.89;100.00
8160;BME280;27404;52.398;9.646;2023-05-10T04:54:11;99967.16;;;11.93;100.00
8160;BME280;27404;52.398;9.646;2023-05-10T04:56:37;99963.78;;;11.85;100.00
8160;BME280;27404;52.398;9.646;2023-05-10T04:59:03;99972.84;;;11.86;100.00
8160;BME280;27404;52.398;9.646;2023-05-10T05:01:28;99982.44;;;11.89;100.00
8160;BME280;27404;52.398;9.646;2023-05-10T05:03:54;99987.59;;;11.80;100.00
8160;BME280;27404;52.398;9.646;2023-05-10T05:06:19;99987.25;;;11.76;100.00
8160;BME280;27404;52.398;9.646;2023-05-10T05:08:46;99998.09;;;11.66;100.00
8160;BME280;27404;52.398;9.646;2023-05-10T05:11:11;99994.22;;;11.57;100.00
8160;BME280;27404;52.398;9.646;2023-05-10T05:13:37;99988.69;;;11.51;100.00
8160;BME280;27404;52.398;9.646;2023-05-10T05:16:03;99994.97;;;11.52;100.00
8160;BME280;27404;52.398;9.646;2023-05-10T05:18:28;100007.06;;;11.56;100.00
8160;BME280;27404;52.398;9.646;2023-05-10T05:20:54;100016.34;;;11.55;100.00
8160;BME280;27404;52.398;9.646;2023-05-10T05:23:19;100031.69;;;11.56;100.00
8160;BME280;27404;52.398;9.646;2023-05-10T05:25:46;100046.47;;;11.55;100.00
8160;BME280;27404;52.398;9.646;2023-05-10T05:28:11;100054.81;;;11.43;100.00
8160;BME280;27404;52.398;9.646;2023-05-10T05:30:37;100042.09;;;11.32;100.00
8160;BME280;27404;52.398;9.646;2023-05-10T05:33:03;100048.59;;;11.25;100.00
8160;BME280;27404;52.398;9.646;2023-05-10T05:35:28;100044.97;;;11.20;100.00
8160;BME280;27404;52.398;9.646;2023-05-10T05:37:54;100055.72;;;11.26;100.00
8160;BME280;27404;52.398;9.646;2023-05-10T05:40:19;100050.88;;;11.34;100.00
8160;BME280;27404;52.398;9.646;2023-05-10T05:42:45;100053.59;;;11.56;100.00
8160;BME280;27404;52.398;9.646;2023-05-10T05:45:11;100054.72;;;11.60;100.00
8160;BME280;27404;52.398;9.646;2023-05-10T05:47:39;100051.28;;;11.70;100.00
8160;BME280;27404;52.398;9.646;2023-05-10T05:50:05;100058.28;;;11.61;100.00
8160;BME280;27404;52.398;9.646;2023-05-10T05:52:30;100062.09;;;11.60;100.00
8160;BME280;27404;52.398;9.646;2023-05-10T05:54:56;100066.97;;;11.52;100.00
8160;BME280;27404;52.398;9.646;2023-05-10T05:57:21;100061.44;;;11.47;100.00
8160;BME280;27404;52.398;9.646;2023-05-10T05:59:47;100065.00;;;11.48;100.00
8160;BME280;27404;52.398;9.646;2023-05-10T06:02:12;100066.41;;;11.50;100.00
8160;BME280;27404;52.398;9.646;2023-05-10T06:04:38;100071.94;;;11.55;100.00
8160;BME280;27404;52.398;9.646;2023-05-10T06:07:03;100070.47;;;11.48;100.00
8160;BME280;27404;52.398;9.646;2023-05-10T06:09:29;100071.88;;;11.50;100.00
8160;BME280;27404;52.398;9.646;2023-05-10T06:11:54;100080.59;;;11.47;100.00
8160;BME280;27404;52.398;9.646;2023-05-10T06:14:20;100074.41;;;11.57;100.00
8160;BME280;27404;52.398;9.646;2023-05-10T06:16:46;100076.34;;;11.62;100.00
8160;BME280;27404;52.398;9.646;2023-05-10T06:19:11;100073.69;;;11.67;100.00
8160;BME280;27404;52.398;9.646;2023-05-10T06:21:37;100075.09;;;11.69;100.00
8160;BME280;27404;52.398;9.646;2023-05-10T06:24:03;100073.22;;;11.75;100.00
8160;BME280;27404;52.398;9.646;2023-05-10T06:26:28;100081.19;;;11.77;100.00
8160;BME280;27404;52.398;9.646;2023-05-10T06:28:54;100078.13;;;11.73;100.00
8160;BME280;27404;52.398;9.646;2023-05-10T06:31:19;100070.81;;;11.79;100.00
8160;BME280;27404;52.398;9.646;2023-05-10T06:33:46;100073.91;;;11.88;100.00
8160;BME280;27404;52.398;9.646;2023-05-10T06:36:11;100086.00;;;11.92;100.00
8160;BME280;27404;52.398;9.646;2023-05-10T06:38:37;100076.44;;;11.94;100.00
8160;BME280;27404;52.398;9.646;2023-05-10T06:41:02;100086.31;;;11.95;100.00
8160;BME280;27404;52.398;9.646;2023-05-10T06:43:28;100085.22;;;11.96;100.00
8160;BME280;27404;52.398;9.646;2023-05-10T06:45:54;100092.06;;;11.94;100.00
8160;BME280;27404;52.398;9.646;2023-05-10T06:48:19;100093.94;;;11.93;100.00
8160;BME280;27404;52.398;9.646;2023-05-10T06:50:44;100097.41;;;12.06;100.00
8160;BME280;27404;52.398;9.646;2023-05-10T06:53:10;100099.56;;;12.04;100.00
8160;BME280;27404;52.398;9.646;2023-05-10T06:55:37;100109.50;;;12.10;100.00
8160;BME280;27404;52.398;9.646;2023-05-10T06:58:02;100109.34;;;12.22;100.00
8160;BME280;27404;52.398;9.646;2023-05-10T07:00:28;100122.09;;;12.38;100.00
8160;BME280;27404;52.398;9.646;2023-05-10T07:02:53;100116.50;;;12.55;100.00
8160;BME280;27404;52.398;9.646;2023-05-10T07:05:19;100130.00;;;12.67;100.00
8160;BME280;27404;52.398;9.646;2023-05-10T07:07:45;100127.38;;;12.83;100.00
8160;BME280;27404;52.398;9.646;2023-05-10T07:10:10;100122.78;;;12.94;100.00
8160;BME280;27404;52.398;9.646;2023-05-10T07:12:36;100133.53;;;13.00;100.00
8160;BME280;27404;52.398;9.646;2023-05-10T07:15:01;100136.31;;;13.06;100.00
8160;BME280;27404;52.398;9.646;2023-05-10T07:17:27;100136.25;;;13.00;100.00
8160;BME280;27404;52.398;9.646;2023-05-10T07:19:52;100138.41;;;12.93;100.00
8160;BME280;27404;52.398;9.646;2023-05-10T07:22:18;100142.00;;;12.94;100.00
8160;BME280;27404;52.398;9.646;2023-05-10T07:24:43;100143.66;;;12.95;100.00
8160;BME280;27404;52.398;9.646;2023-05-10T07:27:09;100146.63;;;12.93;100.00
8160;BME280;27404;52.398;9.646;2023-05-10T07:29:35;100155.09;;;12.86;100.00
8160;BME280;27404;52.398;9.646;2023-05-10T07:32:00;100157.56;;;12.83;100.00
8160;BME280;27404;52.398;9.646;2023-05-10T07:34:26;100163.53;;;12.74;100.00
8160;BME280;27404;52.398;9.646;2023-05-10T07:36:52;100167.88;;;12.70;100.00
8160;BME280;27404;52.398;9.646;2023-05-10T07:39:18;100168.13;;;12.69;100.00
8160;BME280;27404;52.398;9.646;2023-05-10T07:41:43;100165.03;;;12.60;100.00
8160;BME280;27404;52.398;9.646;2023-05-10T07:44:09;100169.97;;;12.58;100.00
8160;BME280;27404;52.398;9.646;2023-05-10T07:46:34;100168.59;;;12.61;100.00
8160;BME280;27404;52.398;9.646;2023-05-10T07:48:59;100172.47;;;12.65;100.00
8160;BME280;27404;52.398;9.646;2023-05-10T07:51:25;100179.31;;;12.62;100.00
8160;BME280;27404;52.398;9.646;2023-05-10T07:53:50;100175.75;;;12.62;100.00
8160;BME280;27404;52.398;9.646;2023-05-10T07:56:29;100176.88;;;12.66;100.00
8160;BME280;27404;52.398;9.646;2023-05-10T07:58:57;100188.22;;;12.74;100.00
8160;BME280;27404;52.398;9.646;2023-05-10T08:01:23;100184.38;;;12.76;100.00
8160;BME280;27404;52.398;9.646;2023-05-10T08:03:49;100187.66;;;12.72;100.00
8160;BME280;27404;52.398;9.646;2023-05-10T08:06:17;100192.25;;;12.67;100.00
8160;BME280;27404;52.398;9.646;2023-05-10T08:08:43;100201.59;;;12.71;100.00
8160;BME280;27404;52.398;9.646;2023-05-10T08:11:10;100214.88;;;12.84;100.00
8160;BME280;27404;52.398;9.646;2023-05-10T08:13:36;100216.03;;;12.88;100.00
8160;BME280;27404;52.398;9.646;2023-05-10T08:16:01;100227.69;;;13.06;100.00
8160;BME280;27404;52.398;9.646;2023-05-10T08:18:27;100230.44;;;13.06;100.00
8160;BME280;27404;52.398;9.646;2023-05-10T08:20:53;100231.63;;;13.15;100.00
8160;BME280;27404;52.398;9.646;2023-05-10T08:23:19;100233.75;;;13.08;100.00
8160;BME280;27404;52.398;9.646;2023-05-10T08:25:44;100234.13;;;13.22;100.00
8160;BME280;27404;52.398;9.646;2023-05-10T08:28:10;100228.13;;;13.30;100.00
8160;BME280;27404;52.398;9.646;2023-05-10T08:30:35;100235.88;;;13.39;100.00
8160;BME280;27404;52.398;9.646;2023-05-10T08:33:00;100239.03;;;13.20;100.00
8160;BME280;27404;52.398;9.646;2023-05-10T08:35:26;100240.06;;;13.09;100.00
8160;BME280;27404;52.398;9.646;2023-05-10T08:37:51;100240.38;;;13.12;100.00
8160;BME280;27404;52.398;9.646;2023-05-10T08:40:19;100249.78;;;13.22;100.00
8160;BME280;27404;52.398;9.646;2023-05-10T08:42:51;100236.50;;;13.46;100.00
8160;BME280;27404;52.398;9.646;2023-05-10T08:45:21;100244.34;;;13.75;100.00
8160;BME280;27404;52.398;9.646;2023-05-10T08:47:49;100247.72;;;13.87;100.00
8160;BME280;27404;52.398;9.646;2023-05-10T08:50:19;100250.19;;;13.84;100.00
8160;BME280;27404;52.398;9.646;2023-05-10T08:52:46;100238.56;;;13.71;100.00
8160;BME280;27404;52.398;9.646;2023-05-10T08:55:13;100249.75;;;13.54;100.00
8160;BME280;27404;52.398;9.646;2023-05-10T08:57:39;100253.69;;;13.36;100.00
8160;BME280;27404;52.398;9.646;2023-05-10T09:00:05;100255.81;;;13.24;100.00
8160;BME280;27404;52.398;9.646;2023-05-10T09:02:31;100256.50;;;13.09;100.00
8160;BME280;27404;52.398;9.646;2023-05-10T09:04:57;100264.31;;;13.22;100.00
8160;BME280;27404;52.398;9.646;2023-05-10T09:07:22;100265.75;;;13.35;100.00
8160;BME280;27404;52.398;9.646;2023-05-10T09:09:48;100275.19;;;13.44;100.00
8160;BME280;27404;52.398;9.646;2023-05-10T09:12:14;100276.75;;;13.73;100.00
8160;BME280;27404;52.398;9.646;2023-05-10T09:14:42;100284.84;;;13.95;100.00
8160;BME280;27404;52.398;9.646;2023-05-10T09:17:09;100277.50;;;14.11;100.00
8160;BME280;27404;52.398;9.646;2023-05-10T09:19:35;100277.03;;;14.35;100.00
8160;BME280;27404;52.398;9.646;2023-05-10T09:22:00;100274.31;;;14.40;100.00
8160;BME280;27404;52.398;9.646;2023-05-10T09:24:29;100276.25;;;14.40;100.00
8160;BME280;27404;52.398;9.646;2023-05-10T09:26:56;100281.75;;;14.45;100.00
8160;BME280;27404;52.398;9.646;2023-05-10T09:29:22;100284.53;;;14.60;100.00
8160;BME280;27404;52.398;9.646;2023-05-10T09:31:51;100283.97;;;14.53;100.00
8160;BME280;27404;52.398;9.646;2023-05-10T09:34:23;100284.22;;;14.46;100.00
8160;BME280;27404;52.398;9.646;2023-05-10T09:37:01;100294.16;;;14.58;100.00
8160;BME280;27404;52.398;9.646;2023-05-10T09:39:31;100293.16;;;14.85;100.00
8160;BME280;27404;52.398;9.646;2023-05-10T09:41:58;100294.00;;;15.01;100.00
8160;BME280;27404;52.398;9.646;2023-05-10T09:44:25;100295.38;;;15.19;100.00
8160;BME280;27404;52.398;9.646;2023-05-10T09:46:51;100294.00;;;15.16;100.00
8160;BME280;27404;52.398;9.646;2023-05-10T09:49:19;100293.97;;;15.37;100.00
8160;BME280;27404;52.398;9.646;2023-05-10T09:51:45;100294.28;;;15.20;100.00
8160;BME280;27404;52.398;9.646;2023-05-10T09:54:15;100295.09;;;15.00;100.00
8160;BME280;27404;52.398;9.646;2023-05-10T09:56:41;100300.31;;;15.06;100.00
8160;BME280;27404;52.398;9.646;2023-05-10T09:59:11;100306.09;;;14.94;100.00
8160;BME280;27404;52.398;9.646;2023-05-10T10:01:38;100304.72;;;15.18;100.00
8160;BME280;27404;52.398;9.646;2023-05-10T10:04:05;100304.72;;;15.18;100.00
8160;BME280;27404;52.398;9.646;2023-05-10T10:06:38;100313.28;;;15.16;100.00
8160;BME280;27404;52.398;9.646;2023-05-10T10:09:05;100318.22;;;15.30;100.00
8160;BME280;27404;52.398;9.646;2023-05-10T10:11:34;100318.78;;;15.47;100.00
8160;BME280;27404;52.398;9.646;2023-05-10T10:14:00;100321.53;;;15.42;100.00
8160;BME280;27404;52.398;9.646;2023-05-10T10:16:28;100325.63;;;15.60;100.00
8160;BME280;27404;52.398;9.646;2023-05-10T10:18:54;100319.56;;;15.63;100.00
8160;BME280;27404;52.398;9.646;2023-05-10T10:21:21;100318.47;;;15.59;100.00
8160;BME280;27404;52.398;9.646;2023-05-10T10:23:46;100324.53;;;15.61;100.00
8160;BME280;27404;52.398;9.646;2023-05-10T10:26:12;100324.03;;;15.44;100.00
8160;BME280;27404;52.398;9.646;2023-05-10T10:31:19;100323.44;;;15.57;100.00
8160;BME280;27404;52.398;9.646;2023-05-10T10:34:08;100317.63;;;15.95;100.00
8160;BME280;27404;52.398;9.646;2023-05-10T10:36:44;100322.03;;;15.96;100.00
8160;BME280;27404;52.398;9.646;2023-05-10T10:39:11;100312.31;;;16.19;100.00
8160;BME280;27404;52.398;9.646;2023-05-10T10:41:50;100313.66;;;16.27;100.00
8160;BME280;27404;52.398;9.646;2023-05-10T10:47:23;100314.66;;;16.52;100.00
8160;BME280;27404;52.398;9.646;2023-05-10T10:52:32;100313.97;;;17.21;100.00
8160;BME280;27404;52.398;9.646;2023-05-10T10:57:24;100311.31;;;17.69;100.00
8160;BME280;27404;52.398;9.646;2023-05-10T10:59:53;100313.22;;;17.74;100.00
8160;BME280;27404;52.398;9.646;2023-05-10T11:02:45;100314.19;;;18.37;100.00
8160;BME280;27404;52.398;9.646;2023-05-10T11:08:00;100314.06;;;18.23;100.00
8160;BME280;27404;52.398;9.646;2023-05-10T11:10:26;100308.25;;;18.00;100.00
8160;BME280;27404;52.398;9.646;2023-05-10T11:15:19;100310.47;;;17.98;100.00
8160;BME280;27404;52.398;9.646;2023-05-10T11:17:47;100317.88;;;18.27;100.00
8160;BME280;27404;52.398;9.646;2023-05-10T11:20:17;100310.44;;;18.47;100.00
8160;BME280;27404;52.398;9.646;2023-05-10T11:22:54;100312.06;;;19.11;100.00
8160;BME280;27404;52.398;9.646;2023-05-10T11:25:23;100316.34;;;19.03;100.00
8160;BME280;27404;52.398;9.646;2023-05-10T11:27:51;100324.78;;;19.78;100.00
8160;BME280;27404;52.398;9.646;2023-05-10T11:30:17;100319.19;;;20.39;100.00
8160;BME280;27404;52.398;9.646;2023-05-10T11:32:43;100319.34;;;20.70;100.00
8160;BME280;27404;52.398;9.646;2023-05-10T11:35:12;100320.06;;;20.62;100.00
8160;BME280;27404;52.398;9.646;2023-05-10T11:37:41;100328.00;;;20.27;100.00
8160;BME280;27404;52.398;9.646;2023-05-10T11:42:38;100327.50;;;20.25;100.00
8160;BME280;27404;52.398;9.646;2023-05-10T11:45:04;100321.41;;;20.79;100.00
8160;BME280;27404;52.398;9.646;2023-05-10T11:47:30;100326.41;;;20.77;100.00
8160;BME280;27404;52.398;9.646;2023-05-10T11:49:55;100324.34;;;21.19;100.00
8160;BME280;27404;52.398;9.646;2023-05-10T11:52:22;100325.66;;;21.22;100.00
8160;BME280;27404;52.398;9.646;2023-05-10T11:54:52;100329.31;;;20.85;100.00
8160;BME280;27404;52.398;9.646;2023-05-10T11:57:19;100325.59;;;21.13;100.00
8160;BME280;27404;52.398;9.646;2023-05-10T11:59:52;100330.03;;;21.37;100.00
8160;BME280;27404;52.398;9.646;2023-05-10T12:02:18;100326.69;;;20.89;100.00
8160;BME280;27404;52.398;9.646;2023-05-10T12:04:43;100325.84;;;20.52;100.00
8160;BME280;27404;52.398;9.646;2023-05-10T12:07:09;100320.50;;;20.41;100.00
8160;BME280;27404;52.398;9.646;2023-05-10T12:09:34;100319.50;;;20.88;100.00
8160;BME280;27404;52.398;9.646;2023-05-10T12:12:02;100320.69;;;21.33;100.00
8160;BME280;27404;52.398;9.646;2023-05-10T12:14:27;100320.81;;;21.50;100.00
8160;BME280;27404;52.398;9.646;2023-05-10T12:16:54;100321.19;;;21.35;100.00
8160;BME280;27404;52.398;9.646;2023-05-10T12:19:22;100319.66;;;21.51;100.00
8160;BME280;27404;52.398;9.646;2023-05-10T12:21:47;100324.72;;;21.04;100.00
8160;BME280;27404;52.398;9.646;2023-05-10T12:24:13;100337.25;;;20.64;100.00
8160;BME280;27404;52.398;9.646;2023-05-10T12:26:41;100326.47;;;20.49;100.00
8160;BME280;27404;52.398;9.646;2023-05-10T12:29:14;100333.19;;;20.20;100.00
8160;BME280;27404;52.398;9.646;2023-05-10T12:34:24;100340.56;;;20.38;100.00
8160;BME280;27404;52.398;9.646;2023-05-10T12:36:52;100345.28;;;20.80;100.00
8160;BME280;27404;52.398;9.646;2023-05-10T12:39:18;100335.81;;;21.04;100.00
8160;BME280;27404;52.398;9.646;2023-05-10T12:41:43;100346.81;;;21.09;100.00
8160;BME280;27404;52.398;9.646;2023-05-10T12:44:09;100346.59;;;20.54;100.00
8160;BME280;27404;52.398;9.646;2023-05-10T12:46:37;100351.53;;;20.85;100.00
8160;BME280;27404;52.398;9.646;2023-05-10T12:49:02;100351.72;;;20.89;100.00
8160;BME280;27404;52.398;9.646;2023-05-10T12:51:27;100352.03;;;21.24;100.00
8160;BME280;27404;52.398;9.646;2023-05-10T12:53:53;100356.47;;;20.61;100.00
8160;BME280;27404;52.398;9.646;2023-05-10T12:58:45;100364.56;;;21.22;100.00
8160;BME280;27404;52.398;9.646;2023-05-10T13:01:13;100362.75;;;21.17;100.00
8160;BME280;27404;52.398;9.646;2023-05-10T13:03:39;100363.34;;;20.91;100.00
8160;BME280;27404;52.398;9.646;2023-05-10T13:06:04;100361.94;;;20.80;100.00
8160;BME280;27404;52.398;9.646;2023-05-10T13:08:31;100361.56;;;20.95;100.00
8160;BME280;27404;52.398;9.646;2023-05-10T13:10:59;100363.63;;;21.04;100.00
8160;BME280;27404;52.398;9.646;2023-05-10T13:13:25;100369.09;;;20.95;100.00
8160;BME280;27404;52.398;9.646;2023-05-10T13:15:50;100370.97;;;21.22;100.00
8160;BME280;27404;52.398;9.646;2023-05-10T13:18:15;100366.50;;;21.12;100.00
8160;BME280;27404;52.398;9.646;2023-05-10T13:20:41;100367.56;;;21.25;100.00
8160;BME280;27404;52.398;9.646;2023-05-10T13:23:08;100369.16;;;21.18;100.00
8160;BME280;27404;52.398;9.646;2023-05-10T13:25:33;100367.63;;;21.11;100.00
8160;BME280;27404;52.398;9.646;2023-05-10T13:27:59;100360.00;;;20.38;100.00
8160;BME280;27404;52.398;9.646;2023-05-10T13:30:25;100360.16;;;20.70;100.00